Time;durP1;ratioP1;P1;durP2;ratioP2;P2;SDS_P1;SDS_P2;PMS_P1;PMS_P2;Temp;Humidity;BMP_temperature;BMP_pressure;BME280_temperature;BME280_humidity;BME280_pressure;Samples;Min_cycle;Max_cycle;Signal;HPM_P1;HPM_P2
2023/05/08 00:00:03;;;;;;;11.02;8.52;;;11.90;99.90;;;;;;4993422;28;20038;-65
2023/05/08 00:02:30;;;;;;;9.32;7.68;;;11.80;99.90;;;;;;4994738;28;20048;-65
2023/05/08 00:04:56;;;;;;;10.57;8.07;;;11.80;99.90;;;;;;4994076;28;20058;-65
2023/05/08 00:07:21;;;;;;;11.15;8.20;;;11.80;99.90;;;;;;4994908;28;20090;-65
2023/05/08 00:09:47;;;;;;;8.65;7.50;;;11.80;99.90;;;;;;4993397;28;20563;-65
2023/05/08 00:12:13;;;;;;;10.23;7.80;;;11.70;99.90;;;;;;4994604;28;20042;-65
2023/05/08 00:14:38;;;;;;;9.07;7.50;;;11.70;99.90;;;;;;4995340;28;20042;-66
2023/05/08 00:17:04;;;;;;;11.77;8.38;;;11.70;99.90;;;;;;4994166;28;20509;-65
2023/05/08 00:19:30;;;;;;;10.20;7.88;;;11.70;99.90;;;;;;4993304;28;20078;-66
2023/05/08 00:21:56;;;;;;;9.88;7.63;;;11.70;99.90;;;;;;4994434;28;20053;-66
2023/05/08 00:24:21;;;;;;;9.75;7.10;;;11.70;99.90;;;;;;4993468;28;20042;-66
2023/05/08 00:26:47;;;;;;;12.55;8.43;;;11.70;99.90;;;;;;4995208;28;20129;-66
2023/05/08 00:29:13;;;;;;;9.15;7.55;;;11.70;99.90;;;;;;4994365;28;20104;-66
2023/05/08 00:31:38;;;;;;;10.65;7.95;;;11.70;99.90;;;;;;4993034;28;20046;-66
2023/05/08 00:34:04;;;;;;;9.48;7.85;;;11.70;99.90;;;;;;4993103;28;20172;-66
2023/05/08 00:36:31;;;;;;;8.32;7.05;;;11.70;99.90;;;;;;4993936;28;20047;-66
2023/05/08 00:38:56;;;;;;;9.70;8.05;;;11.70;99.90;;;;;;4993274;28;20094;-66
2023/05/08 00:41:22;;;;;;;10.43;8.10;;;11.70;99.90;;;;;;4995052;28;20474;-65
2023/05/08 00:43:48;;;;;;;12.20;8.32;;;11.70;99.90;;;;;;4993002;28;20390;-66
2023/05/08 00:46:13;;;;;;;9.55;8.10;;;11.70;99.90;;;;;;4993985;28;20046;-65
2023/05/08 00:48:41;;;;;;;9.98;8.02;;;11.70;99.90;;;;;;4994179;28;20409;-67
2023/05/08 00:51:10;;;;;;;10.52;8.07;;;11.70;99.90;;;;;;4993915;28;20129;-66
2023/05/08 00:53:39;;;;;;;20.25;8.23;;;11.70;99.90;;;;;;4978033;28;20374;-66
2023/05/08 00:56:09;;;;;;;9.70;7.97;;;11.70;99.90;;;;;;4994606;28;20060;-65
2023/05/08 00:58:34;;;;;;;9.52;8.10;;;11.70;99.90;;;;;;4992895;28;20050;-66
2023/05/08 01:01:00;;;;;;;11.20;8.65;;;11.70;99.90;;;;;;4993982;28;20092;-66
2023/05/08 01:03:27;;;;;;;10.50;7.38;;;11.70;99.90;;;;;;4994840;28;20054;-66
2023/05/08 01:05:53;;;;;;;8.80;7.60;;;11.70;99.90;;;;;;4993017;28;20059;-66
2023/05/08 01:08:19;;;;;;;9.48;7.90;;;11.70;99.90;;;;;;4994016;28;20050;-65
2023/05/08 01:10:52;;;;;;;11.50;8.75;;;11.70;99.90;;;;;;4993974;28;20096;-65
2023/05/08 01:13:42;;;;;;;9.57;7.90;;;11.70;99.90;;;;;;4993996;28;20086;-65
2023/05/08 01:16:21;;;;;;;11.52;7.97;;;11.70;99.90;;;;;;4993659;28;20565;-65
2023/05/08 01:18:59;;;;;;;10.93;8.00;;;11.60;99.90;;;;;;4994081;28;20101;-66
2023/05/08 01:21:51;;;;;;;9.13;7.88;;;11.60;99.90;;;;;;4994496;28;20199;-65
2023/05/08 01:24:52;;;;;;;9.73;7.82;;;11.60;99.90;;;;;;4977498;28;20085;-65
2023/05/08 01:27:35;;;;;;;10.85;7.60;;;11.60;99.90;;;;;;4993844;28;20086;-65
2023/05/08 01:30:19;;;;;;;8.95;7.63;;;11.50;99.90;;;;;;4993803;28;20092;-65
2023/05/08 01:32:54;;;;;;;8.80;7.55;;;11.50;99.90;;;;;;4993647;28;20065;-65
2023/05/08 01:35:25;;;;;;;9.40;8.05;;;11.40;99.90;;;;;;4994054;28;20500;-65
2023/05/08 01:38:09;;;;;;;9.20;7.63;;;11.40;99.90;;;;;;4993774;28;20058;-65
2023/05/08 01:41:01;;;;;;;8.63;7.32;;;11.40;99.90;;;;;;4993777;28;20100;-65
2023/05/08 01:43:52;;;;;;;10.52;8.60;;;11.40;99.90;;;;;;4994323;28;20050;-66
2023/05/08 01:46:27;;;;;;;9.00;7.63;;;11.30;99.90;;;;;;4986410;28;20050;-65
2023/05/08 01:49:18;;;;;;;8.63;7.28;;;11.30;99.90;;;;;;4994370;28;20042;-65
2023/05/08 01:51:48;;;;;;;10.90;7.93;;;11.20;99.90;;;;;;4978216;28;20054;-65
2023/05/08 01:54:21;;;;;;;9.75;8.30;;;11.20;99.90;;;;;;4996138;28;20061;-65
2023/05/08 01:56:49;;;;;;;10.32;8.18;;;11.20;99.90;;;;;;4997088;28;20038;-65
2023/05/08 01:59:19;;;;;;;9.93;8.00;;;11.20;99.90;;;;;;4996934;28;20047;-65
2023/05/08 02:01:47;;;;;;;10.20;7.60;;;11.10;99.90;;;;;;4996918;28;20061;-66
2023/05/08 02:04:15;;;;;;;10.02;8.07;;;11.10;99.90;;;;;;4997736;28;20383;-65
2023/05/08 02:06:41;;;;;;;10.05;8.23;;;11.10;99.90;;;;;;4995914;28;20050;-66
2023/05/08 02:09:09;;;;;;;9.30;7.85;;;11.10;99.90;;;;;;4996807;28;20047;-66
2023/05/08 02:11:38;;;;;;;9.80;7.85;;;11.00;99.90;;;;;;4996783;28;20490;-65
2023/05/08 02:14:05;;;;;;;9.43;7.45;;;11.00;99.90;;;;;;4996769;28;20441;-66
2023/05/08 02:16:33;;;;;;;11.43;7.95;;;11.00;99.90;;;;;;4995489;28;20410;-65
2023/05/08 02:19:01;;;;;;;9.98;7.50;;;11.00;99.90;;;;;;4996570;28;20047;-66
2023/05/08 02:21:30;;;;;;;9.05;7.55;;;11.00;99.90;;;;;;4996584;28;20093;-66
2023/05/08 02:23:58;;;;;;;9.57;7.43;;;11.00;99.90;;;;;;4997351;28;20077;-66
2023/05/08 02:26:25;;;;;;;8.82;7.40;;;10.90;99.90;;;;;;4996446;28;20050;-66
2023/05/08 02:28:53;;;;;;;9.38;7.70;;;10.90;99.90;;;;;;4996449;28;20501;-66
2023/05/08 02:31:20;;;;;;;9.00;7.47;;;10.90;99.90;;;;;;4997107;28;20082;-65
2023/05/08 02:33:48;;;;;;;8.60;7.30;;;10.90;99.90;;;;;;4996593;28;20058;-65
2023/05/08 02:36:17;;;;;;;9.77;7.47;;;10.90;99.90;;;;;;4995184;28;20042;-65
2023/05/08 02:38:50;;;;;;;10.43;7.95;;;10.90;99.90;;;;;;4996215;28;20042;-66
2023/05/08 02:41:17;;;;;;;;;;;10.80;99.90;;;;;;4996137;28;20065;-66
2023/05/08 02:43:42;;;;;;;9.70;7.88;;;10.80;99.90;;;;;;4995016;28;19922;-65
2023/05/08 02:46:14;;;;;;;10.18;7.95;;;10.80;99.90;;;;;;4996668;28;20180;-66
2023/05/08 02:48:48;;;;;;;9.70;7.00;;;10.80;99.90;;;;;;4994943;28;20045;-66
2023/05/08 02:51:21;;;;;;;8.77;7.35;;;10.80;99.90;;;;;;4995847;28;20181;-65
2023/05/08 02:53:58;;;;;;;8.73;7.32;;;10.80;99.90;;;;;;4996569;28;20405;-66
2023/05/08 02:56:34;;;;;;;10.95;7.60;;;10.70;99.90;;;;;;4995285;28;20121;-65
2023/05/08 02:59:15;;;;;;;12.23;7.35;;;10.70;99.90;;;;;;4978875;28;20042;-65
2023/05/08 03:01:52;;;;;;;8.18;6.68;;;10.70;99.90;;;;;;4995291;28;20446;-65
2023/05/08 03:04:27;;;;;;;12.30;7.13;;;10.70;99.90;;;;;;4996135;28;20042;-66
2023/05/08 03:06:55;;;;;;;10.27;7.22;;;10.70;99.90;;;;;;4994642;28;20391;-65
2023/05/08 03:09:25;;;;;;;8.52;6.90;;;10.70;99.90;;;;;;4996254;28;20038;-65
2023/05/08 03:11:59;;;;;;;10.25;7.60;;;10.70;99.90;;;;;;4995665;28;20406;-66
2023/05/08 03:14:27;;;;;;;9.38;7.28;;;10.60;99.90;;;;;;4995921;28;20050;-65
2023/05/08 03:16:56;;;;;;;10.18;7.13;;;10.60;99.90;;;;;;4994361;28;20446;-66
2023/05/08 03:19:33;;;;;;;8.38;6.78;;;10.60;99.90;;;;;;4994361;28;20499;-66
2023/05/08 03:22:01;;;;;;;9.38;7.50;;;10.60;99.90;;;;;;4996002;28;20061;-65
2023/05/08 03:24:28;;;;;;;7.43;6.65;;;10.60;99.90;;;;;;4995098;28;20524;-65
2023/05/08 03:26:55;;;;;;;8.77;7.45;;;10.50;99.90;;;;;;4995357;28;20050;-65
2023/05/08 03:29:23;;;;;;;7.40;6.40;;;10.60;99.90;;;;;;4994338;28;20053;-65
2023/05/08 03:31:51;;;;;;;8.23;6.70;;;10.50;99.90;;;;;;4995233;28;20053;-65
2023/05/08 03:34:18;;;;;;;7.70;6.90;;;10.50;99.90;;;;;;4995009;28;20133;-66
2023/05/08 03:36:44;;;;;;;10.25;7.30;;;10.50;99.90;;;;;;4995150;28;20050;-65
2023/05/08 03:39:11;;;;;;;8.68;7.30;;;10.50;99.90;;;;;;4994049;28;20096;-65
2023/05/08 03:41:36;;;;;;;9.23;7.43;;;10.40;99.90;;;;;;4995012;28;20050;-66
2023/05/08 03:44:03;;;;;;;8.63;7.15;;;10.50;99.90;;;;;;4993798;28;20100;-65
2023/05/08 03:46:30;;;;;;;10.55;7.75;;;10.40;99.90;;;;;;4994062;28;20363;-65
2023/05/08 03:48:59;;;;;;;9.77;7.38;;;10.40;99.90;;;;;;4993977;28;20115;-66
2023/05/08 03:51:26;;;;;;;9.45;7.22;;;10.40;99.90;;;;;;4994713;28;20063;-66
2023/05/08 03:53:52;;;;;;;6.95;6.25;;;10.40;99.90;;;;;;4995492;28;20062;-66
2023/05/08 03:56:18;;;;;;;10.15;7.57;;;10.40;99.90;;;;;;4993867;28;20505;-66
2023/05/08 03:58:48;;;;;;;10.20;7.65;;;10.30;99.90;;;;;;4993554;28;20050;-66
2023/05/08 04:01:39;;;;;;;7.78;6.53;;;10.30;99.90;;;;;;4994002;28;20048;-65
2023/05/08 04:04:26;;;;;;;8.70;6.93;;;10.30;99.90;;;;;;4993521;28;20081;-65
2023/05/08 04:07:16;;;;;;;8.82;7.18;;;10.30;99.90;;;;;;4994728;28;20501;-66
2023/05/08 04:09:48;;;;;;;10.43;7.15;;;10.30;99.90;;;;;;4994714;28;20038;-66
2023/05/08 04:12:25;;;;;;;9.90;7.72;;;10.30;99.90;;;;;;4993097;28;20046;-66
2023/05/08 04:14:54;;;;;;;9.82;8.00;;;10.20;99.90;;;;;;4994614;28;20054;-66
2023/05/08 04:17:48;;;;;;;10.73;7.75;;;10.20;99.90;;;;;;4994824;28;20096;-65
2023/05/08 04:20:16;;;;;;;;;;;10.20;99.90;;;;;;4994537;28;20043;-66
2023/05/08 04:22:43;;;;;;;8.05;6.93;;;10.20;99.90;;;;;;4977303;28;20353;-65
2023/05/08 04:25:11;;;;;;;8.63;7.70;;;10.20;99.90;;;;;;4994725;28;20437;-66
2023/05/08 04:27:37;;;;;;;11.27;7.90;;;10.20;99.90;;;;;;4993995;28;20360;-66
2023/05/08 04:30:03;;;;;;;9.35;7.38;;;10.20;99.90;;;;;;4994841;28;20410;-66
2023/05/08 04:32:30;;;;;;;9.32;7.50;;;10.20;99.90;;;;;;4993611;28;20049;-66
2023/05/08 04:34:58;;;;;;;10.95;8.15;;;10.20;99.90;;;;;;4994284;28;20050;-66
2023/05/08 04:37:27;;;;;;;10.27;8.02;;;10.10;99.90;;;;;;4994140;28;20382;-66
2023/05/08 04:39:53;;;;;;;10.77;7.90;;;10.10;99.90;;;;;;4994153;28;20158;-66
2023/05/08 04:42:20;;;;;;;11.68;8.70;;;10.10;99.90;;;;;;4993316;28;20054;-66
2023/05/08 04:44:46;;;;;;;10.40;7.95;;;10.10;99.90;;;;;;4993250;28;20051;-65
2023/05/08 04:47:13;;;;;;;9.77;7.85;;;10.10;99.90;;;;;;4994206;28;20050;-65
2023/05/08 04:49:38;;;;;;;10.23;8.60;;;10.10;99.90;;;;;;4994135;28;20054;-65
2023/05/08 04:52:05;;;;;;;9.15;7.50;;;10.10;99.90;;;;;;4992691;28;20058;-65
2023/05/08 04:54:31;;;;;;;11.13;8.30;;;10.10;99.90;;;;;;4994138;28;20055;-66
2023/05/08 04:56:57;;;;;;;10.05;7.97;;;10.10;99.90;;;;;;4994194;28;20093;-65
2023/05/08 04:59:23;;;;;;;10.88;7.78;;;10.10;99.90;;;;;;4992943;28;20051;-66
2023/05/08 05:01:50;;;;;;;10.88;7.80;;;10.10;99.90;;;;;;4993959;28;20046;-66
2023/05/08 05:04:15;;;;;;;9.95;7.93;;;10.10;99.90;;;;;;4994820;28;20085;-65
2023/05/08 05:06:41;;;;;;;10.27;7.97;;;10.10;99.90;;;;;;4976872;28;20085;-65
2023/05/08 05:09:08;;;;;;;9.48;8.00;;;10.10;99.90;;;;;;4994514;28;20036;-66
2023/05/08 05:11:33;;;;;;;9.25;7.38;;;10.10;99.90;;;;;;4993258;28;20061;-66
2023/05/08 05:13:59;;;;;;;12.68;8.27;;;10.20;99.90;;;;;;4993957;28;20047;-65
2023/05/08 05:16:26;;;;;;;12.57;8.70;;;10.20;99.90;;;;;;4993972;28;20105;-66
2023/05/08 05:18:52;;;;;;;10.80;8.10;;;10.20;99.90;;;;;;4993471;28;20437;-66
2023/05/08 05:21:18;;;;;;;10.80;8.45;;;10.20;99.90;;;;;;4993892;28;20050;-65
2023/05/08 05:23:44;;;;;;;9.45;7.85;;;10.20;99.90;;;;;;4993977;28;20471;-65
2023/05/08 05:26:10;;;;;;;10.02;8.18;;;10.30;99.90;;;;;;4996422;28;20394;-66
2023/05/08 05:28:36;;;;;;;10.55;8.20;;;10.30;99.90;;;;;;4997407;28;20050;-67
2023/05/08 05:31:02;;;;;;;10.02;7.88;;;10.30;99.90;;;;;;4997486;28;20042;-65
2023/05/08 05:33:27;;;;;;;9.73;8.05;;;10.30;99.90;;;;;;4997857;28;20054;-65
2023/05/08 05:35:53;;;;;;;9.88;7.63;;;10.30;99.90;;;;;;4997530;28;20496;-66
2023/05/08 05:38:19;;;;;;;10.75;7.93;;;10.30;99.90;;;;;;4997389;28;20054;-65
2023/05/08 05:40:45;;;;;;;12.00;8.50;;;10.40;99.90;;;;;;4997920;28;20054;-66
2023/05/08 05:43:11;;;;;;;9.90;8.55;;;10.40;99.90;;;;;;4997380;28;20125;-65
2023/05/08 05:45:37;;;;;;;10.25;8.25;;;10.40;99.90;;;;;;4997305;28;20043;-65
2023/05/08 05:48:03;;;;;;;10.52;8.05;;;10.50;99.90;;;;;;4997210;28;20497;-65
2023/05/08 05:50:29;;;;;;;11.52;8.25;;;10.50;99.90;;;;;;4995991;28;20560;-65
2023/05/08 05:52:55;;;;;;;9.98;8.02;;;10.50;99.90;;;;;;4997446;28;20063;-65
2023/05/08 05:55:21;;;;;;;11.93;8.55;;;10.50;99.90;;;;;;4996191;28;20093;-66
2023/05/08 05:57:47;;;;;;;14.25;8.02;;;10.60;99.90;;;;;;4996663;28;20085;-65
2023/05/08 06:00:14;;;;;;;10.95;7.93;;;10.60;99.90;;;;;;4995406;28;20046;-66
2023/05/08 06:02:40;;;;;;;10.85;8.48;;;10.60;99.90;;;;;;4997589;28;20058;-65
2023/05/08 06:05:08;;;;;;;12.27;8.38;;;10.70;99.90;;;;;;4997221;28;20470;-65
2023/05/08 06:07:34;;;;;;;10.13;8.30;;;10.70;99.90;;;;;;4996929;28;20096;-65
2023/05/08 06:10:00;;;;;;;10.27;8.30;;;10.70;99.90;;;;;;4996920;28;20081;-66
2023/05/08 06:12:27;;;;;;;11.02;8.00;;;10.80;99.90;;;;;;4995624;28;20572;-65
2023/05/08 06:14:53;;;;;;;11.93;8.90;;;10.90;99.90;;;;;;4997604;28;20362;-65
2023/05/08 06:17:19;;;;;;;9.32;8.35;;;10.90;99.90;;;;;;4997489;28;20399;-66
2023/05/08 06:19:49;;;;;;;10.05;8.18;;;10.90;99.90;;;;;;4996598;28;20085;-65
2023/05/08 06:22:17;;;;;;;9.98;7.78;;;11.00;99.90;;;;;;4996690;28;20042;-65
2023/05/08 06:24:42;;;;;;;11.30;8.15;;;11.00;99.90;;;;;;4996822;28;20526;-65
2023/05/08 06:27:09;;;;;;;12.32;8.32;;;11.10;99.90;;;;;;4996546;28;20085;-65
2023/05/08 06:29:34;;;;;;;10.70;8.38;;;11.10;99.90;;;;;;4995357;28;20125;-65
2023/05/08 06:32:00;;;;;;;11.25;8.82;;;11.10;99.90;;;;;;4996367;28;20454;-65
2023/05/08 06:34:26;;;;;;;11.77;8.82;;;11.20;99.90;;;;;;4995201;28;20398;-65
2023/05/08 06:36:52;;;;;;;10.55;8.40;;;11.30;99.90;;;;;;4996894;28;20053;-66
2023/05/08 06:39:17;;;;;;;9.60;8.15;;;11.30;99.90;;;;;;4996234;28;20129;-66
2023/05/08 06:41:47;;;;;;;12.40;8.27;;;11.40;99.90;;;;;;4996277;28;20050;-65
2023/05/08 06:44:14;;;;;;;12.38;8.95;;;11.40;99.90;;;;;;4996181;28;20050;-65
2023/05/08 06:46:39;;;;;;;9.38;8.02;;;11.50;99.90;;;;;;4996218;28;20086;-65
2023/05/08 06:49:06;;;;;;;10.45;8.52;;;11.60;99.90;;;;;;4994905;28;20089;-66
2023/05/08 06:51:31;;;;;;;10.85;8.70;;;11.80;99.90;;;;;;4979454;28;20102;-66
2023/05/08 06:53:58;;;;;;;11.45;9.10;;;11.90;99.90;;;;;;4962468;28;20434;-65
2023/05/08 06:56:23;;;;;;;10.77;8.88;;;12.10;99.90;;;;;;4979647;28;20050;-65
2023/05/08 06:58:49;;;;;;;11.50;8.85;;;12.20;99.90;;;;;;4995672;28;20130;-66
2023/05/08 07:01:15;;;;;;;10.52;8.38;;;12.40;99.90;;;;;;4995819;28;20050;-65
2023/05/08 07:03:41;;;;;;;10.65;9.00;;;12.50;99.90;;;;;;4996145;28;20082;-66
2023/05/08 07:06:10;;;;;;;9.68;7.40;;;12.60;99.90;;;;;;4994836;28;20051;-65
2023/05/08 07:08:36;;;;;;;11.60;8.20;;;12.70;99.90;;;;;;4995722;28;20410;-66
2023/05/08 07:11:02;;;;;;;10.05;8.23;;;12.80;99.90;;;;;;4995763;28;20072;-66
2023/05/08 07:13:29;;;;;;;7.75;6.93;;;12.90;99.90;;;;;;4978653;28;20046;-66
2023/05/08 07:15:54;;;;;;;10.80;8.02;;;13.00;99.90;;;;;;4995040;28;20050;-65
2023/05/08 07:18:20;;;;;;;9.73;8.25;;;13.10;99.90;;;;;;4994243;28;20493;-66
2023/05/08 07:20:46;;;;;;;9.90;7.90;;;13.10;99.90;;;;;;4994359;28;20460;-66
2023/05/08 07:23:12;;;;;;;11.25;8.20;;;13.20;99.90;;;;;;4995489;28;20058;-66
2023/05/08 07:25:38;;;;;;;13.18;8.77;;;14.00;99.90;;;;;;4995276;28;20038;-66
2023/05/08 07:28:04;;;;;;;9.80;8.18;;;13.30;99.90;;;;;;4995421;28;20046;-66
2023/05/08 07:30:30;;;;;;;9.63;8.05;;;13.30;99.90;;;;;;4995293;28;20453;-66
2023/05/08 07:32:56;;;;;;;9.82;8.20;;;13.30;99.90;;;;;;4994904;28;20060;-66
2023/05/08 07:35:22;;;;;;;9.10;7.78;;;13.30;99.90;;;;;;4995364;28;20115;-65
2023/05/08 07:37:48;;;;;;;10.85;8.15;;;13.30;99.90;;;;;;4994790;28;20128;-66
2023/05/08 07:40:13;;;;;;;10.52;8.27;;;13.30;99.90;;;;;;4977933;28;20046;-66
2023/05/08 07:42:40;;;;;;;10.60;9.13;;;13.40;99.90;;;;;;4994959;28;20082;-66
2023/05/08 07:45:08;;;;;;;11.40;8.90;;;13.40;99.90;;;;;;4995670;28;20054;-66
2023/05/08 07:47:34;;;;;;;9.93;8.38;;;13.50;99.90;;;;;;4994581;28;20054;-66
2023/05/08 07:50:00;;;;;;;10.73;8.65;;;13.60;99.90;;;;;;4994432;28;20050;-66
2023/05/08 07:52:26;;;;;;;11.43;8.63;;;13.60;99.90;;;;;;4995049;28;20058;-66
2023/05/08 07:54:51;;;;;;;10.52;8.43;;;13.70;99.90;;;;;;4995870;28;20058;-66
2023/05/08 07:57:17;;;;;;;11.65;9.05;;;13.80;99.90;;;;;;4994025;28;20050;-66
2023/05/08 07:59:43;;;;;;;12.95;8.57;;;13.80;99.90;;;;;;4994975;28;20053;-66
2023/05/08 08:02:09;;;;;;;10.05;8.48;;;14.00;99.90;;;;;;4993943;28;20057;-65
2023/05/08 08:04:34;;;;;;;10.13;8.60;;;14.00;99.90;;;;;;4993778;28;20390;-66
2023/05/08 08:07:00;;;;;;;10.65;8.75;;;14.10;99.90;;;;;;4994525;28;20069;-64
2023/05/08 08:09:26;;;;;;;10.25;8.50;;;14.10;99.90;;;;;;4993913;28;20058;-66
2023/05/08 08:11:52;;;;;;;10.75;8.57;;;14.20;99.90;;;;;;4993807;28;20046;-66
2023/05/08 08:14:17;;;;;;;10.50;8.80;;;14.30;99.90;;;;;;4993572;28;20050;-66
2023/05/08 08:16:43;;;;;;;10.43;8.82;;;14.40;99.90;;;;;;4993759;28;20133;-66
2023/05/08 08:19:09;;;;;;;10.43;8.95;;;14.50;99.90;;;;;;4994599;28;20039;-66
2023/05/08 08:21:35;;;;;;;10.18;9.07;;;14.60;99.90;;;;;;4994615;28;20060;-66
2023/05/08 08:24:01;;;;;;;10.65;9.13;;;14.70;99.90;;;;;;4994544;28;20042;-65
2023/05/08 08:26:27;;;;;;;10.40;9.25;;;14.80;99.90;;;;;;4977118;28;20046;-66
2023/05/08 08:28:53;;;;;;;10.27;8.60;;;14.90;99.90;;;;;;4993983;28;20046;-66
2023/05/08 08:31:18;;;;;;;10.85;8.90;;;15.00;99.90;;;;;;4994897;28;20129;-66
2023/05/08 08:33:45;;;;;;;9.23;8.05;;;15.00;99.90;;;;;;4993442;28;20124;-67
2023/05/08 08:36:14;;;;;;;10.05;8.43;;;15.10;99.90;;;;;;4994389;28;20532;-66
2023/05/08 08:38:41;;;;;;;10.55;8.70;;;15.00;99.90;;;;;;4994520;28;20129;-67
2023/05/08 08:41:07;;;;;;;9.90;8.63;;;15.10;99.90;;;;;;4994641;28;20379;-66
2023/05/08 08:43:33;;;;;;;12.80;9.18;;;15.10;99.90;;;;;;4994348;28;20097;-66
2023/05/08 08:46:08;;;;;;;10.25;8.93;;;15.20;99.90;;;;;;4994287;28;20062;-66
2023/05/08 08:48:36;;;;;;;12.40;9.05;;;15.20;99.90;;;;;;4995139;28;20382;-68
2023/05/08 08:51:06;;;;;;;11.73;9.38;;;15.20;99.90;;;;;;4993314;28;20058;-67
2023/05/08 08:53:39;;;;;;;13.68;10.27;;;15.20;99.90;;;;;;4994221;28;20058;-66
2023/05/08 08:56:07;;;;;;;10.18;9.07;;;15.20;99.90;;;;;;4995263;28;20043;-67
2023/05/08 08:58:42;;;;;;;10.82;9.40;;;15.30;99.90;;;;;;4995026;28;20054;-66
2023/05/08 09:01:12;;;;;;;10.27;9.02;;;15.40;99.90;;;;;;4998204;28;20108;-67
2023/05/08 09:03:38;;;;;;;11.75;10.18;;;15.50;99.90;;;;;;4998811;28;20073;-67
2023/05/08 09:06:05;;;;;;;10.68;8.98;;;15.60;99.90;;;;;;4996998;28;20545;-67
2023/05/08 09:08:31;;;;;;;11.00;9.38;;;15.60;99.90;;;;;;4996905;28;20453;-66
2023/05/08 09:10:57;;;;;;;11.85;10.65;;;15.70;99.90;;;;;;4998033;28;20049;-67
2023/05/08 09:13:22;;;;;;;10.55;9.45;;;15.80;99.90;;;;;;4998551;28;20046;-67
2023/05/08 09:15:49;;;;;;;10.30;9.20;;;15.90;99.90;;;;;;4996826;28;20151;-67
2023/05/08 09:18:16;;;;;;;12.23;9.48;;;15.90;99.90;;;;;;4998173;28;20509;-67
2023/05/08 09:20:43;;;;;;;11.35;10.13;;;16.00;99.90;;;;;;4997864;28;20048;-67
2023/05/08 09:23:09;;;;;;;11.98;10.20;;;16.00;99.90;;;;;;4997888;28;20065;-67
2023/05/08 09:25:42;;;;;;;10.48;9.20;;;16.00;99.90;;;;;;4997893;28;20569;-69
2023/05/08 09:28:15;;;;;;;;;;;16.10;99.90;;;;;;4998772;28;20078;-68
2023/05/08 09:30:55;;;;;;;11.43;9.57;;;16.10;99.90;;;;;;4997616;28;19976;-67
2023/05/08 09:33:23;;;;;;;10.75;9.65;;;16.10;99.90;;;;;;4998250;28;20047;-67
2023/05/08 09:35:49;;;;;;;10.20;9.02;;;16.20;99.90;;;;;;4998108;28;20050;-67
2023/05/08 09:38:42;;;;;;;12.15;10.85;;;16.20;99.90;;;;;;4980344;28;20112;-67
2023/05/08 09:41:14;;;;;;;11.10;9.88;;;16.20;99.90;;;;;;5011084;28;20120;-67
2023/05/08 09:43:41;;;;;;;11.48;9.70;;;16.20;99.90;;;;;;4997410;28;20061;-67
2023/05/08 09:46:21;;;;;;;12.25;9.75;;;16.20;99.90;;;;;;4997320;28;20046;-67
2023/05/08 09:48:47;;;;;;;10.77;9.68;;;16.30;99.90;;;;;;4996561;28;20043;-68
2023/05/08 09:51:13;;;;;;;11.73;10.27;;;16.40;99.90;;;;;;4996037;28;20054;-67
2023/05/08 09:53:39;;;;;;;12.75;10.50;;;16.40;99.90;;;;;;4997328;28;20058;-67
2023/05/08 09:56:05;;;;;;;12.43;10.73;;;16.40;99.90;;;;;;4997645;28;20054;-67
2023/05/08 09:58:44;;;;;;;11.32;9.85;;;16.50;99.90;;;;;;4997583;28;20050;-67
2023/05/08 10:01:29;;;;;;;11.80;9.77;;;16.50;99.90;;;;;;4996992;28;20098;-67
2023/05/08 10:03:55;;;;;;;11.45;9.98;;;16.60;99.90;;;;;;4996117;28;20046;-67
2023/05/08 10:06:20;;;;;;;11.95;10.55;;;16.70;99.90;;;;;;4995856;28;20049;-67
2023/05/08 10:08:47;;;;;;;11.32;10.13;;;16.70;99.90;;;;;;4996947;28;20098;-67
2023/05/08 10:11:17;;;;;;;11.55;10.35;;;16.80;99.90;;;;;;4996274;28;20055;-67
2023/05/08 10:13:44;;;;;;;12.50;10.57;;;16.80;99.90;;;;;;4997385;28;20129;-66
2023/05/08 10:16:19;;;;;;;14.02;11.02;;;16.90;99.90;;;;;;4996866;28;20390;-67
2023/05/08 10:18:48;;;;;;;13.30;11.90;;;16.90;99.90;;;;;;4997324;28;20189;-68
2023/05/08 10:21:15;;;;;;;12.88;10.88;;;17.00;99.90;;;;;;4995765;28;20095;-66
2023/05/08 10:23:47;;;;;;;12.50;11.00;;;17.00;99.90;;;;;;4996778;28;20046;-66
2023/05/08 10:26:15;;;;;;;;;;;17.10;99.90;;;;;;4997146;28;20049;-67
2023/05/08 10:28:55;;;;;;;15.50;12.25;;;17.10;99.90;;;;;;4997414;28;20277;-69
2023/05/08 10:31:24;;;;;;;14.25;11.98;;;17.10;99.90;;;;;;4996558;28;20046;-68
2023/05/08 10:33:50;;;;;;;13.48;11.50;;;17.20;99.90;;;;;;4995929;28;20057;-68
2023/05/08 10:36:16;;;;;;;13.10;11.23;;;17.30;99.90;;;;;;4997026;28;20129;-69
2023/05/08 10:38:42;;;;;;;13.13;11.27;;;17.30;99.90;;;;;;4996420;28;20140;-68
2023/05/08 10:41:09;;;;;;;13.00;11.57;;;17.30;99.90;;;;;;4996411;28;20042;-69
2023/05/08 10:43:40;;;;;;;11.90;10.70;;;17.40;99.90;;;;;;4996403;28;20069;-69
2023/05/08 10:46:28;;;;;;;13.43;11.52;;;17.50;99.90;;;;;;4996436;28;20057;-67
2023/05/08 10:49:00;;;;;;;12.77;11.40;;;17.50;99.90;;;;;;4996878;28;20042;-68
2023/05/08 10:51:46;;;;;;;13.98;11.77;;;17.60;99.90;;;;;;4979365;28;20058;-68
2023/05/08 10:54:21;;;;;;;12.63;11.18;;;17.70;99.90;;;;;;4995415;28;20445;-68
2023/05/08 10:56:47;;;;;;;13.98;11.52;;;17.70;99.90;;;;;;4995007;28;20137;-69
2023/05/08 10:59:21;;;;;;;13.05;11.50;;;17.70;99.90;;;;;;4978702;28;20046;-69
2023/05/08 11:01:48;;;;;;;12.85;11.50;;;17.80;99.90;;;;;;4996849;28;20462;-69
2023/05/08 11:04:21;;;;;;;14.48;11.98;;;17.80;99.90;;;;;;4995879;28;20054;-68
2023/05/08 11:06:51;;;;;;;12.70;11.40;;;17.90;99.90;;;;;;4995964;28;20421;-67
2023/05/08 11:09:22;;;;;;;14.43;12.05;;;18.00;99.90;;;;;;4995905;28;20053;-67
2023/05/08 11:12:07;;;;;;;14.50;12.57;;;18.10;99.90;;;;;;4995758;28;20108;-67
2023/05/08 11:14:36;;;;;;;12.85;11.30;;;18.10;99.90;;;;;;4994870;28;20536;-67
2023/05/08 11:17:03;;;;;;;14.90;13.02;;;18.10;99.90;;;;;;4996473;28;20046;-67
2023/05/08 11:19:29;;;;;;;13.50;12.05;;;18.20;99.90;;;;;;4994681;28;20528;-67
2023/05/08 11:22:15;;;;;;;14.25;12.52;;;18.30;99.90;;;;;;4994158;28;20050;-67
2023/05/08 11:24:58;;;;;;;14.95;12.60;;;18.30;99.90;;;;;;4995358;28;20506;-69
2023/05/08 11:27:39;;;;;;;14.02;12.13;;;18.40;99.90;;;;;;4995431;28;20133;-69
2023/05/08 11:30:23;;;;;;;14.70;12.75;;;18.40;99.90;;;;;;4995258;28;20038;-69
2023/05/08 11:33:18;;;;;;;16.05;12.57;;;18.50;99.90;;;;;;4994417;28;20061;-68
2023/05/08 11:35:55;;;;;;;14.07;11.40;;;18.50;99.90;;;;;;4981477;28;20058;-69
2023/05/08 11:38:23;;;;;;;14.93;12.38;;;18.60;99.90;;;;;;4978576;28;20054;-68
2023/05/08 11:40:59;;;;;;;15.45;12.77;;;18.60;99.90;;;;;;4995118;28;20042;-68
2023/05/08 11:43:45;;;;;;;14.38;12.82;;;18.70;99.90;;;;;;4995588;28;20414;-68
2023/05/08 11:46:16;;;;;;;15.63;12.40;;;18.80;99.90;;;;;;4995159;28;20533;-68
2023/05/08 11:48:42;;;;;;;14.85;13.27;;;18.90;99.90;;;;;;4995059;28;20046;-68
2023/05/08 11:51:08;;;;;;;13.88;12.40;;;19.00;99.90;;;;;;4995046;28;20371;-68
2023/05/08 11:53:35;;;;;;;15.20;13.50;;;19.00;99.90;;;;;;4994644;28;20430;-69
2023/05/08 11:56:02;;;;;;;15.88;13.27;;;19.10;99.90;;;;;;4994368;28;20489;-68
2023/05/08 11:58:28;;;;;;;15.52;12.52;;;19.10;99.90;;;;;;4994412;28;20129;-69
2023/05/08 12:00:54;;;;;;;15.73;13.52;;;19.20;99.90;;;;;;4994492;28;20125;-69
2023/05/08 12:03:22;;;;;;;15.48;13.05;;;19.20;99.90;;;;;;4994833;28;20401;-68
2023/05/08 12:05:49;;;;;;;17.23;14.02;;;19.30;99.90;;;;;;4994684;28;20398;-68
2023/05/08 12:08:16;;;;;;;15.27;13.55;;;19.40;99.90;;;;;;4994705;28;20108;-68
2023/05/08 12:10:55;;;;;;;15.68;13.35;;;19.30;99.90;;;;;;4994580;28;20093;-69
2023/05/08 12:13:26;;;;;;;14.93;12.60;;;19.40;99.90;;;;;;4994392;28;20104;-69
2023/05/08 12:15:55;;;;;;;15.48;13.40;;;19.40;99.90;;;;;;4995467;28;20089;-68
2023/05/08 12:18:21;;;;;;;15.77;13.60;;;19.50;99.90;;;;;;4995058;28;20054;-68
2023/05/08 12:20:52;;;;;;;16.65;14.38;;;19.50;99.90;;;;;;4994502;28;20077;-69
2023/05/08 12:23:18;;;;;;;14.80;13.23;;;19.50;99.90;;;;;;4994468;28;20478;-68
2023/05/08 12:25:43;;;;;;;17.30;14.38;;;19.60;99.90;;;;;;4994389;28;20045;-68
2023/05/08 12:28:10;;;;;;;18.50;14.68;;;19.60;99.90;;;;;;4994871;28;20046;-68
2023/05/08 12:30:36;;;;;;;15.38;13.55;;;19.60;99.90;;;;;;4994328;28;20181;-68
2023/05/08 12:33:06;;;;;;;15.38;13.63;;;19.60;99.90;;;;;;4976824;28;20100;-69
2023/05/08 12:35:32;;;;;;;16.70;13.57;;;19.70;99.90;;;;;;4993756;28;20058;-69
2023/05/08 12:38:02;;;;;;;15.65;13.98;;;19.80;99.90;;;;;;4995353;28;20062;-69
2023/05/08 12:40:30;;;;;;;16.38;14.35;;;19.80;99.90;;;;;;4993264;28;20059;-69
2023/05/08 12:42:59;;;;;;;16.88;14.07;;;19.90;99.90;;;;;;4994324;28;20137;-68
2023/05/08 12:45:46;;;;;;;16.85;13.95;;;19.90;99.90;;;;;;4977107;28;20473;-68
2023/05/08 12:48:14;;;;;;;16.35;14.63;;;20.00;99.90;;;;;;4993975;28;20046;-69